sensor_id;sensor_type;location;lat;lon;timestamp;P1;durP1;ratioP1;P2;durP2;ratioP2
55819;SDS011;41747;45.002;39.032;2022-08-05T00:01:57;18.10;;;14.40;;
55819;SDS011;41747;45.002;39.032;2022-08-05T00:04:27;21.20;;;14.20;;
55819;SDS011;41747;45.002;39.032;2022-08-05T00:06:56;17.92;;;13.55;;
55819;SDS011;41747;45.002;39.032;2022-08-05T00:09:26;17.73;;;13.03;;
55819;SDS011;41747;45.002;39.032;2022-08-05T00:12:00;17.32;;;14.35;;
55819;SDS011;41747;45.002;39.032;2022-08-05T00:14:29;18.70;;;14.28;;
55819;SDS011;41747;45.002;39.032;2022-08-05T00:16:59;18.25;;;13.70;;
55819;SDS011;41747;45.002;39.032;2022-08-05T00:19:29;17.50;;;13.40;;
55819;SDS011;41747;45.002;39.032;2022-08-05T00:21:58;18.75;;;14.30;;
55819;SDS011;41747;45.002;39.032;2022-08-05T00:24:28;17.45;;;14.10;;
55819;SDS011;41747;45.002;39.032;2022-08-05T00:26:58;18.30;;;14.07;;
55819;SDS011;41747;45.002;39.032;2022-08-05T00:29:28;19.73;;;13.90;;
55819;SDS011;41747;45.002;39.032;2022-08-05T00:31:57;18.45;;;14.43;;
55819;SDS011;41747;45.002;39.032;2022-08-05T00:34:28;18.05;;;14.35;;
55819;SDS011;41747;45.002;39.032;2022-08-05T00:36:57;18.92;;;13.48;;
55819;SDS011;41747;45.002;39.032;2022-08-05T00:39:27;19.17;;;13.70;;
55819;SDS011;41747;45.002;39.032;2022-08-05T00:41:56;17.48;;;13.80;;
55819;SDS011;41747;45.002;39.032;2022-08-05T00:44:26;23.75;;;14.75;;
55819;SDS011;41747;45.002;39.032;2022-08-05T00:46:55;18.48;;;14.53;;
55819;SDS011;41747;45.002;39.032;2022-08-05T00:49:26;22.30;;;13.70;;
55819;SDS011;41747;45.002;39.032;2022-08-05T00:51:57;17.20;;;14.05;;
55819;SDS011;41747;45.002;39.032;2022-08-05T00:54:27;17.35;;;13.55;;
55819;SDS011;41747;45.002;39.032;2022-08-05T00:56:56;18.67;;;14.23;;
55819;SDS011;41747;45.002;39.032;2022-08-05T00:59:26;17.48;;;14.73;;
55819;SDS011;41747;45.002;39.032;2022-08-05T01:01:55;21.90;;;14.63;;
55819;SDS011;41747;45.002;39.032;2022-08-05T01:04:25;18.60;;;14.13;;
55819;SDS011;41747;45.002;39.032;2022-08-05T01:06:54;20.70;;;14.83;;
55819;SDS011;41747;45.002;39.032;2022-08-05T01:09:24;17.55;;;14.38;;
55819;SDS011;41747;45.002;39.032;2022-08-05T01:11:54;18.92;;;14.65;;
55819;SDS011;41747;45.002;39.032;2022-08-05T01:17:10;18.92;;;14.03;;
55819;SDS011;41747;45.002;39.032;2022-08-05T01:19:54;19.60;;;14.53;;
55819;SDS011;41747;45.002;39.032;2022-08-05T01:22:53;19.82;;;14.05;;
55819;SDS011;41747;45.002;39.032;2022-08-05T01:25:43;15.68;;;13.95;;
55819;SDS011;41747;45.002;39.032;2022-08-05T01:28:34;20.25;;;14.93;;
55819;SDS011;41747;45.002;39.032;2022-08-05T01:31:28;18.73;;;14.65;;
55819;SDS011;41747;45.002;39.032;2022-08-05T01:34:08;18.32;;;14.30;;
55819;SDS011;41747;45.002;39.032;2022-08-05T01:39:16;15.75;;;13.72;;
55819;SDS011;41747;45.002;39.032;2022-08-05T01:41:46;16.70;;;13.08;;
55819;SDS011;41747;45.002;39.032;2022-08-05T01:44:18;15.63;;;13.65;;
55819;SDS011;41747;45.002;39.032;2022-08-05T01:46:49;17.82;;;13.62;;
55819;SDS011;41747;45.002;39.032;2022-08-05T01:49:20;15.95;;;13.95;;
55819;SDS011;41747;45.002;39.032;2022-08-05T01:52:00;15.72;;;13.48;;
55819;SDS011;41747;45.002;39.032;2022-08-05T01:54:28;19.95;;;13.95;;
55819;SDS011;41747;45.002;39.032;2022-08-05T01:56:59;16.80;;;14.07;;
55819;SDS011;41747;45.002;39.032;2022-08-05T01:59:30;15.78;;;13.60;;
55819;SDS011;41747;45.002;39.032;2022-08-05T02:02:02;19.65;;;13.90;;
55819;SDS011;41747;45.002;39.032;2022-08-05T02:04:34;16.90;;;13.18;;
55819;SDS011;41747;45.002;39.032;2022-08-05T02:07:05;18.77;;;14.40;;
55819;SDS011;41747;45.002;39.032;2022-08-05T02:09:35;18.70;;;14.05;;
55819;SDS011;41747;45.002;39.032;2022-08-05T02:12:05;19.05;;;13.78;;
55819;SDS011;41747;45.002;39.032;2022-08-05T02:14:44;18.45;;;13.53;;
55819;SDS011;41747;45.002;39.032;2022-08-05T02:17:24;17.77;;;13.05;;
55819;SDS011;41747;45.002;39.032;2022-08-05T02:19:56;16.42;;;13.03;;
55819;SDS011;41747;45.002;39.032;2022-08-05T02:22:28;16.15;;;13.70;;
55819;SDS011;41747;45.002;39.032;2022-08-05T02:25:07;15.25;;;12.90;;
55819;SDS011;41747;45.002;39.032;2022-08-05T02:27:33;18.98;;;13.85;;
55819;SDS011;41747;45.002;39.032;2022-08-05T02:30:05;19.35;;;13.98;;
55819;SDS011;41747;45.002;39.032;2022-08-05T02:32:36;17.37;;;13.60;;
55819;SDS011;41747;45.002;39.032;2022-08-05T02:35:12;17.98;;;13.72;;
55819;SDS011;41747;45.002;39.032;2022-08-05T02:37:40;18.12;;;13.38;;
55819;SDS011;41747;45.002;39.032;2022-08-05T02:40:12;18.73;;;13.20;;
55819;SDS011;41747;45.002;39.032;2022-08-05T02:42:44;16.73;;;13.75;;
55819;SDS011;41747;45.002;39.032;2022-08-05T02:45:14;16.90;;;13.50;;
55819;SDS011;41747;45.002;39.032;2022-08-05T02:47:45;18.30;;;12.90;;
55819;SDS011;41747;45.002;39.032;2022-08-05T02:50:16;16.23;;;13.43;;
55819;SDS011;41747;45.002;39.032;2022-08-05T02:52:46;15.65;;;12.80;;
55819;SDS011;41747;45.002;39.032;2022-08-05T02:55:16;16.10;;;13.32;;
55819;SDS011;41747;45.002;39.032;2022-08-05T02:57:46;17.55;;;13.40;;
55819;SDS011;41747;45.002;39.032;2022-08-05T03:00:17;19.00;;;13.43;;
55819;SDS011;41747;45.002;39.032;2022-08-05T03:02:46;15.53;;;12.53;;
55819;SDS011;41747;45.002;39.032;2022-08-05T03:05:17;15.60;;;13.43;;
55819;SDS011;41747;45.002;39.032;2022-08-05T03:07:48;17.05;;;13.65;;
55819;SDS011;41747;45.002;39.032;2022-08-05T03:10:18;14.75;;;13.05;;
55819;SDS011;41747;45.002;39.032;2022-08-05T03:12:48;17.05;;;12.63;;
55819;SDS011;41747;45.002;39.032;2022-08-05T03:15:17;18.37;;;12.33;;
55819;SDS011;41747;45.002;39.032;2022-08-05T03:17:49;19.85;;;12.80;;
55819;SDS011;41747;45.002;39.032;2022-08-05T03:20:20;21.82;;;13.22;;
55819;SDS011;41747;45.002;39.032;2022-08-05T03:22:49;16.52;;;12.47;;
55819;SDS011;41747;45.002;39.032;2022-08-05T03:25:20;18.55;;;12.93;;
55819;SDS011;41747;45.002;39.032;2022-08-05T03:27:51;16.73;;;12.60;;
55819;SDS011;41747;45.002;39.032;2022-08-05T03:30:22;17.37;;;12.05;;
55819;SDS011;41747;45.002;39.032;2022-08-05T03:32:53;14.87;;;12.15;;
55819;SDS011;41747;45.002;39.032;2022-08-05T03:35:22;19.75;;;12.93;;
55819;SDS011;41747;45.002;39.032;2022-08-05T03:37:55;18.87;;;12.90;;
55819;SDS011;41747;45.002;39.032;2022-08-05T03:40:24;20.05;;;14.00;;
55819;SDS011;41747;45.002;39.032;2022-08-05T03:42:54;17.98;;;13.10;;
55819;SDS011;41747;45.002;39.032;2022-08-05T03:45:44;16.93;;;13.13;;
55819;SDS011;41747;45.002;39.032;2022-08-05T03:48:14;19.25;;;13.30;;
55819;SDS011;41747;45.002;39.032;2022-08-05T03:50:50;17.12;;;13.13;;
55819;SDS011;41747;45.002;39.032;2022-08-05T03:53:27;18.65;;;13.00;;
55819;SDS011;41747;45.002;39.032;2022-08-05T03:58:38;19.05;;;12.70;;
55819;SDS011;41747;45.002;39.032;2022-08-05T04:01:10;20.65;;;13.88;;
55819;SDS011;41747;45.002;39.032;2022-08-05T04:03:43;20.05;;;14.53;;
55819;SDS011;41747;45.002;39.032;2022-08-05T04:06:14;21.82;;;15.75;;
55819;SDS011;41747;45.002;39.032;2022-08-05T04:08:46;42.40;;;25.55;;
55819;SDS011;41747;45.002;39.032;2022-08-05T04:11:16;98.27;;;86.10;;
55819;SDS011;41747;45.002;39.032;2022-08-05T04:13:46;92.65;;;79.07;;
55819;SDS011;41747;45.002;39.032;2022-08-05T04:16:17;88.72;;;78.12;;
55819;SDS011;41747;45.002;39.032;2022-08-05T04:18:47;71.60;;;62.05;;
55819;SDS011;41747;45.002;39.032;2022-08-05T04:21:16;46.20;;;37.95;;
55819;SDS011;41747;45.002;39.032;2022-08-05T04:23:46;46.20;;;34.20;;
55819;SDS011;41747;45.002;39.032;2022-08-05T04:26:15;23.32;;;18.25;;
55819;SDS011;41747;45.002;39.032;2022-08-05T04:28:44;19.70;;;15.28;;
55819;SDS011;41747;45.002;39.032;2022-08-05T04:31:14;18.82;;;15.13;;
55819;SDS011;41747;45.002;39.032;2022-08-05T04:33:44;16.93;;;13.83;;
55819;SDS011;41747;45.002;39.032;2022-08-05T04:36:13;21.55;;;14.65;;
55819;SDS011;41747;45.002;39.032;2022-08-05T04:38:43;14.95;;;13.35;;
55819;SDS011;41747;45.002;39.032;2022-08-05T04:41:12;17.55;;;12.50;;
55819;SDS011;41747;45.002;39.032;2022-08-05T04:43:42;18.20;;;12.58;;
55819;SDS011;41747;45.002;39.032;2022-08-05T04:46:12;13.85;;;10.55;;
55819;SDS011;41747;45.002;39.032;2022-08-05T04:48:41;15.05;;;10.82;;
55819;SDS011;41747;45.002;39.032;2022-08-05T04:51:11;22.00;;;12.10;;
55819;SDS011;41747;45.002;39.032;2022-08-05T04:53:41;15.38;;;11.05;;
55819;SDS011;41747;45.002;39.032;2022-08-05T04:56:11;17.60;;;12.18;;
55819;SDS011;41747;45.002;39.032;2022-08-05T04:58:41;20.00;;;14.75;;
55819;SDS011;41747;45.002;39.032;2022-08-05T05:01:11;17.67;;;13.90;;
55819;SDS011;41747;45.002;39.032;2022-08-05T05:03:40;20.88;;;13.62;;
55819;SDS011;41747;45.002;39.032;2022-08-05T05:06:12;13.72;;;10.80;;
55819;SDS011;41747;45.002;39.032;2022-08-05T05:08:41;18.30;;;10.53;;
55819;SDS011;41747;45.002;39.032;2022-08-05T05:11:11;23.42;;;12.10;;
55819;SDS011;41747;45.002;39.032;2022-08-05T05:13:40;19.30;;;10.65;;
55819;SDS011;41747;45.002;39.032;2022-08-05T05:16:10;18.82;;;10.72;;
55819;SDS011;41747;45.002;39.032;2022-08-05T05:18:41;16.57;;;10.80;;
55819;SDS011;41747;45.002;39.032;2022-08-05T05:21:10;18.15;;;11.22;;
55819;SDS011;41747;45.002;39.032;2022-08-05T05:23:39;15.08;;;11.45;;
55819;SDS011;41747;45.002;39.032;2022-08-05T05:26:09;18.73;;;11.55;;
55819;SDS011;41747;45.002;39.032;2022-08-05T05:28:39;15.43;;;11.50;;
55819;SDS011;41747;45.002;39.032;2022-08-05T05:31:08;16.45;;;12.78;;
55819;SDS011;41747;45.002;39.032;2022-08-05T05:33:38;20.97;;;12.33;;
55819;SDS011;41747;45.002;39.032;2022-08-05T05:36:08;18.52;;;12.05;;
55819;SDS011;41747;45.002;39.032;2022-08-05T05:38:37;17.17;;;13.58;;
55819;SDS011;41747;45.002;39.032;2022-08-05T05:41:07;16.95;;;13.00;;
55819;SDS011;41747;45.002;39.032;2022-08-05T05:43:36;17.55;;;12.82;;
55819;SDS011;41747;45.002;39.032;2022-08-05T05:46:06;18.92;;;15.08;;
55819;SDS011;41747;45.002;39.032;2022-08-05T05:48:36;16.65;;;14.40;;
55819;SDS011;41747;45.002;39.032;2022-08-05T05:51:07;18.02;;;14.03;;
55819;SDS011;41747;45.002;39.032;2022-08-05T05:53:36;17.50;;;14.23;;
55819;SDS011;41747;45.002;39.032;2022-08-05T05:56:06;20.90;;;15.15;;
55819;SDS011;41747;45.002;39.032;2022-08-05T05:58:36;17.15;;;15.35;;
55819;SDS011;41747;45.002;39.032;2022-08-05T06:01:05;14.80;;;13.13;;
55819;SDS011;41747;45.002;39.032;2022-08-05T06:03:35;16.57;;;13.08;;
55819;SDS011;41747;45.002;39.032;2022-08-05T06:06:04;15.72;;;13.18;;
55819;SDS011;41747;45.002;39.032;2022-08-05T06:08:34;14.00;;;12.18;;
55819;SDS011;41747;45.002;39.032;2022-08-05T06:11:04;15.63;;;12.82;;
55819;SDS011;41747;45.002;39.032;2022-08-05T06:13:34;14.47;;;12.45;;
55819;SDS011;41747;45.002;39.032;2022-08-05T06:16:04;16.70;;;12.85;;
55819;SDS011;41747;45.002;39.032;2022-08-05T06:18:34;14.40;;;12.35;;
55819;SDS011;41747;45.002;39.032;2022-08-05T06:21:03;14.40;;;12.55;;
55819;SDS011;41747;45.002;39.032;2022-08-05T06:23:33;19.95;;;13.93;;
55819;SDS011;41747;45.002;39.032;2022-08-05T06:26:02;15.10;;;12.33;;
55819;SDS011;41747;45.002;39.032;2022-08-05T06:28:32;15.23;;;13.08;;
55819;SDS011;41747;45.002;39.032;2022-08-05T06:31:03;15.93;;;12.85;;
55819;SDS011;41747;45.002;39.032;2022-08-05T06:33:33;15.80;;;12.07;;
55819;SDS011;41747;45.002;39.032;2022-08-05T06:36:03;14.47;;;11.68;;
55819;SDS011;41747;45.002;39.032;2022-08-05T06:38:33;16.55;;;11.63;;
55819;SDS011;41747;45.002;39.032;2022-08-05T06:41:03;15.75;;;12.00;;
55819;SDS011;41747;45.002;39.032;2022-08-05T06:43:32;13.53;;;11.15;;
55819;SDS011;41747;45.002;39.032;2022-08-05T06:46:02;13.88;;;11.60;;
55819;SDS011;41747;45.002;39.032;2022-08-05T06:48:32;13.53;;;12.13;;
55819;SDS011;41747;45.002;39.032;2022-08-05T06:51:02;16.05;;;11.93;;
55819;SDS011;41747;45.002;39.032;2022-08-05T06:53:32;15.88;;;11.63;;
55819;SDS011;41747;45.002;39.032;2022-08-05T06:56:02;17.57;;;13.58;;
55819;SDS011;41747;45.002;39.032;2022-08-05T06:58:32;13.88;;;11.90;;
55819;SDS011;41747;45.002;39.032;2022-08-05T07:01:01;14.05;;;10.88;;
55819;SDS011;41747;45.002;39.032;2022-08-05T07:03:34;14.40;;;11.57;;
55819;SDS011;41747;45.002;39.032;2022-08-05T07:06:03;14.93;;;12.33;;
55819;SDS011;41747;45.002;39.032;2022-08-05T07:08:32;15.50;;;12.37;;
55819;SDS011;41747;45.002;39.032;2022-08-05T07:11:02;16.67;;;11.85;;
55819;SDS011;41747;45.002;39.032;2022-08-05T07:13:32;14.98;;;11.50;;
55819;SDS011;41747;45.002;39.032;2022-08-05T07:16:20;16.52;;;12.20;;
55819;SDS011;41747;45.002;39.032;2022-08-05T07:19:07;13.38;;;11.95;;
55819;SDS011;41747;45.002;39.032;2022-08-05T07:21:37;16.20;;;12.60;;
55819;SDS011;41747;45.002;39.032;2022-08-05T07:24:15;17.48;;;11.85;;
55819;SDS011;41747;45.002;39.032;2022-08-05T07:26:44;14.45;;;12.43;;
55819;SDS011;41747;45.002;39.032;2022-08-05T07:29:14;15.08;;;12.35;;
55819;SDS011;41747;45.002;39.032;2022-08-05T07:31:44;14.13;;;12.63;;
55819;SDS011;41747;45.002;39.032;2022-08-05T07:34:14;13.30;;;11.57;;
55819;SDS011;41747;45.002;39.032;2022-08-05T07:36:43;15.58;;;12.95;;
55819;SDS011;41747;45.002;39.032;2022-08-05T07:39:12;16.77;;;13.08;;
55819;SDS011;41747;45.002;39.032;2022-08-05T07:41:42;14.55;;;12.90;;
55819;SDS011;41747;45.002;39.032;2022-08-05T07:44:11;15.63;;;12.58;;
55819;SDS011;41747;45.002;39.032;2022-08-05T07:46:54;15.05;;;12.73;;
55819;SDS011;41747;45.002;39.032;2022-08-05T07:49:23;15.23;;;13.08;;
55819;SDS011;41747;45.002;39.032;2022-08-05T07:51:52;14.33;;;12.25;;
55819;SDS011;41747;45.002;39.032;2022-08-05T07:54:22;15.20;;;13.45;;
55819;SDS011;41747;45.002;39.032;2022-08-05T07:56:56;14.00;;;12.60;;
55819;SDS011;41747;45.002;39.032;2022-08-05T07:59:25;17.37;;;15.65;;
55819;SDS011;41747;45.002;39.032;2022-08-05T08:01:55;13.53;;;12.13;;
55819;SDS011;41747;45.002;39.032;2022-08-05T08:04:24;15.75;;;13.22;;
55819;SDS011;41747;45.002;39.032;2022-08-05T08:06:54;16.05;;;12.10;;
55819;SDS011;41747;45.002;39.032;2022-08-05T08:09:25;15.28;;;12.63;;
55819;SDS011;41747;45.002;39.032;2022-08-05T08:11:55;16.17;;;13.30;;
55819;SDS011;41747;45.002;39.032;2022-08-05T08:14:28;16.20;;;11.90;;
55819;SDS011;41747;45.002;39.032;2022-08-05T08:16:58;16.85;;;13.38;;
55819;SDS011;41747;45.002;39.032;2022-08-05T08:19:28;15.32;;;12.13;;
55819;SDS011;41747;45.002;39.032;2022-08-05T08:21:58;14.13;;;12.65;;
55819;SDS011;41747;45.002;39.032;2022-08-05T08:24:27;13.53;;;12.05;;
55819;SDS011;41747;45.002;39.032;2022-08-05T08:26:57;14.85;;;12.37;;
55819;SDS011;41747;45.002;39.032;2022-08-05T08:29:26;15.15;;;13.15;;
55819;SDS011;41747;45.002;39.032;2022-08-05T08:31:56;16.23;;;13.43;;
55819;SDS011;41747;45.002;39.032;2022-08-05T08:34:26;16.30;;;12.13;;
55819;SDS011;41747;45.002;39.032;2022-08-05T08:36:55;17.65;;;13.15;;
55819;SDS011;41747;45.002;39.032;2022-08-05T08:39:24;17.30;;;12.05;;
55819;SDS011;41747;45.002;39.032;2022-08-05T08:41:54;17.70;;;15.05;;
55819;SDS011;41747;45.002;39.032;2022-08-05T08:44:23;21.30;;;13.50;;
55819;SDS011;41747;45.002;39.032;2022-08-05T08:47:13;15.95;;;14.13;;
55819;SDS011;41747;45.002;39.032;2022-08-05T08:49:43;16.85;;;13.98;;
55819;SDS011;41747;45.002;39.032;2022-08-05T08:52:19;17.40;;;13.65;;
55819;SDS011;41747;45.002;39.032;2022-08-05T08:54:52;18.73;;;14.43;;
55819;SDS011;41747;45.002;39.032;2022-08-05T08:57:22;17.12;;;14.03;;
55819;SDS011;41747;45.002;39.032;2022-08-05T08:59:51;18.05;;;13.55;;
55819;SDS011;41747;45.002;39.032;2022-08-05T09:02:22;17.73;;;15.28;;
55819;SDS011;41747;45.002;39.032;2022-08-05T09:04:52;18.37;;;14.70;;
55819;SDS011;41747;45.002;39.032;2022-08-05T09:07:21;22.58;;;15.43;;
55819;SDS011;41747;45.002;39.032;2022-08-05T09:09:51;22.40;;;16.25;;
55819;SDS011;41747;45.002;39.032;2022-08-05T09:12:20;19.70;;;15.48;;
55819;SDS011;41747;45.002;39.032;2022-08-05T09:14:49;22.98;;;16.25;;
55819;SDS011;41747;45.002;39.032;2022-08-05T09:17:19;19.12;;;15.75;;
55819;SDS011;41747;45.002;39.032;2022-08-05T09:19:49;19.90;;;16.90;;
55819;SDS011;41747;45.002;39.032;2022-08-05T09:22:18;20.52;;;16.48;;
55819;SDS011;41747;45.002;39.032;2022-08-05T09:42:16;20.00;;;15.55;;
55819;SDS011;41747;45.002;39.032;2022-08-05T09:44:47;25.30;;;16.37;;
55819;SDS011;41747;45.002;39.032;2022-08-05T09:47:22;20.62;;;16.57;;
55819;SDS011;41747;45.002;39.032;2022-08-05T09:49:53;18.37;;;16.40;;
55819;SDS011;41747;45.002;39.032;2022-08-05T09:52:31;17.75;;;15.70;;
55819;SDS011;41747;45.002;39.032;2022-08-05T09:55:03;19.60;;;16.12;;
55819;SDS011;41747;45.002;39.032;2022-08-05T09:57:42;20.75;;;17.87;;
55819;SDS011;41747;45.002;39.032;2022-08-05T10:00:16;22.42;;;18.42;;
55819;SDS011;41747;45.002;39.032;2022-08-05T10:02:50;18.57;;;16.40;;
55819;SDS011;41747;45.002;39.032;2022-08-05T10:05:24;22.73;;;15.98;;
55819;SDS011;41747;45.002;39.032;2022-08-05T10:07:56;20.52;;;15.75;;
55819;SDS011;41747;45.002;39.032;2022-08-05T10:13:05;20.05;;;16.25;;
55819;SDS011;41747;45.002;39.032;2022-08-05T10:15:35;22.80;;;16.50;;
55819;SDS011;41747;45.002;39.032;2022-08-05T10:18:15;22.48;;;17.52;;
55819;SDS011;41747;45.002;39.032;2022-08-05T10:20:49;24.10;;;16.97;;
55819;SDS011;41747;45.002;39.032;2022-08-05T10:25:56;18.77;;;16.35;;
55819;SDS011;41747;45.002;39.032;2022-08-05T10:28:27;22.20;;;16.42;;
55819;SDS011;41747;45.002;39.032;2022-08-05T10:30:58;23.05;;;17.27;;
55819;SDS011;41747;45.002;39.032;2022-08-05T10:33:28;23.45;;;17.85;;
55819;SDS011;41747;45.002;39.032;2022-08-05T10:36:00;24.05;;;16.82;;
55819;SDS011;41747;45.002;39.032;2022-08-05T10:38:31;26.20;;;16.30;;
55819;SDS011;41747;45.002;39.032;2022-08-05T10:41:16;22.87;;;15.93;;
55819;SDS011;41747;45.002;39.032;2022-08-05T10:43:53;20.23;;;15.50;;
55819;SDS011;41747;45.002;39.032;2022-08-05T10:46:47;24.20;;;17.95;;
55819;SDS011;41747;45.002;39.032;2022-08-05T10:49:18;20.88;;;17.25;;
55819;SDS011;41747;45.002;39.032;2022-08-05T10:51:49;20.02;;;16.77;;
55819;SDS011;41747;45.002;39.032;2022-08-05T10:55:03;23.85;;;17.02;;
55819;SDS011;41747;45.002;39.032;2022-08-05T10:57:27;18.90;;;16.90;;
55819;SDS011;41747;45.002;39.032;2022-08-05T11:05:33;19.02;;;16.30;;
55819;SDS011;41747;45.002;39.032;2022-08-05T11:08:03;16.73;;;12.30;;
55819;SDS011;41747;45.002;39.032;2022-08-05T11:10:35;17.12;;;12.75;;
55819;SDS011;41747;45.002;39.032;2022-08-05T11:13:07;19.23;;;14.85;;
55819;SDS011;41747;45.002;39.032;2022-08-05T11:15:37;19.57;;;16.17;;
55819;SDS011;41747;45.002;39.032;2022-08-05T11:20:44;17.40;;;14.35;;
55819;SDS011;41747;45.002;39.032;2022-08-05T11:23:33;22.62;;;14.13;;
55819;SDS011;41747;45.002;39.032;2022-08-05T11:26:21;20.50;;;14.75;;
55819;SDS011;41747;45.002;39.032;2022-08-05T11:28:52;19.32;;;13.65;;
55819;SDS011;41747;45.002;39.032;2022-08-05T11:31:26;18.10;;;14.25;;
55819;SDS011;41747;45.002;39.032;2022-08-05T11:33:59;24.18;;;14.58;;
55819;SDS011;41747;45.002;39.032;2022-08-05T11:36:40;19.95;;;14.30;;
55819;SDS011;41747;45.002;39.032;2022-08-05T11:39:13;18.75;;;14.45;;
55819;SDS011;41747;45.002;39.032;2022-08-05T11:41:49;17.12;;;13.15;;
55819;SDS011;41747;45.002;39.032;2022-08-05T11:44:19;18.17;;;13.43;;
55819;SDS011;41747;45.002;39.032;2022-08-05T11:46:55;20.43;;;12.95;;
55819;SDS011;41747;45.002;39.032;2022-08-05T11:49:21;17.98;;;12.68;;
55819;SDS011;41747;45.002;39.032;2022-08-05T11:51:50;18.32;;;11.60;;
55819;SDS011;41747;45.002;39.032;2022-08-05T11:54:22;16.62;;;12.13;;
55819;SDS011;41747;45.002;39.032;2022-08-05T11:56:54;16.80;;;11.83;;
55819;SDS011;41747;45.002;39.032;2022-08-05T11:59:25;16.05;;;11.93;;
55819;SDS011;41747;45.002;39.032;2022-08-05T12:01:59;14.50;;;11.75;;
55819;SDS011;41747;45.002;39.032;2022-08-05T12:04:38;14.53;;;10.93;;
55819;SDS011;41747;45.002;39.032;2022-08-05T12:07:11;12.25;;;10.53;;
55819;SDS011;41747;45.002;39.032;2022-08-05T12:09:42;13.60;;;11.55;;
55819;SDS011;41747;45.002;39.032;2022-08-05T12:12:22;15.05;;;10.82;;
55819;SDS011;41747;45.002;39.032;2022-08-05T12:14:56;13.70;;;10.50;;
55819;SDS011;41747;45.002;39.032;2022-08-05T12:17:26;13.90;;;10.08;;
55819;SDS011;41747;45.002;39.032;2022-08-05T12:19:57;13.98;;;11.00;;
55819;SDS011;41747;45.002;39.032;2022-08-05T12:22:26;16.30;;;11.60;;
55819;SDS011;41747;45.002;39.032;2022-08-05T12:24:56;12.10;;;9.40;;
55819;SDS011;41747;45.002;39.032;2022-08-05T12:27:27;14.60;;;10.75;;
55819;SDS011;41747;45.002;39.032;2022-08-05T12:30:07;16.23;;;11.50;;
55819;SDS011;41747;45.002;39.032;2022-08-05T12:32:44;16.15;;;12.25;;
55819;SDS011;41747;45.002;39.032;2022-08-05T12:35:16;13.22;;;11.83;;
55819;SDS011;41747;45.002;39.032;2022-08-05T12:37:46;15.48;;;10.65;;
55819;SDS011;41747;45.002;39.032;2022-08-05T12:40:16;15.80;;;11.73;;
55819;SDS011;41747;45.002;39.032;2022-08-05T12:42:47;14.05;;;11.60;;
55819;SDS011;41747;45.002;39.032;2022-08-05T12:45:16;14.73;;;11.43;;
55819;SDS011;41747;45.002;39.032;2022-08-05T12:47:46;15.63;;;11.25;;
55819;SDS011;41747;45.002;39.032;2022-08-05T12:50:15;14.43;;;11.40;;
55819;SDS011;41747;45.002;39.032;2022-08-05T12:52:54;12.50;;;10.88;;
55819;SDS011;41747;45.002;39.032;2022-08-05T12:55:26;17.27;;;11.73;;
55819;SDS011;41747;45.002;39.032;2022-08-05T12:57:58;16.35;;;11.40;;
55819;SDS011;41747;45.002;39.032;2022-08-05T13:00:27;15.88;;;11.90;;
55819;SDS011;41747;45.002;39.032;2022-08-05T13:02:59;15.53;;;11.30;;
55819;SDS011;41747;45.002;39.032;2022-08-05T13:05:29;15.43;;;11.22;;
55819;SDS011;41747;45.002;39.032;2022-08-05T13:07:58;14.07;;;10.65;;
55819;SDS011;41747;45.002;39.032;2022-08-05T13:10:30;13.98;;;11.48;;
55819;SDS011;41747;45.002;39.032;2022-08-05T13:13:02;15.43;;;11.25;;
55819;SDS011;41747;45.002;39.032;2022-08-05T13:15:33;15.72;;;10.98;;
55819;SDS011;41747;45.002;39.032;2022-08-05T13:18:03;13.72;;;10.82;;
55819;SDS011;41747;45.002;39.032;2022-08-05T13:20:33;14.07;;;11.15;;
55819;SDS011;41747;45.002;39.032;2022-08-05T13:23:03;15.30;;;11.95;;
55819;SDS011;41747;45.002;39.032;2022-08-05T13:25:32;16.25;;;11.45;;
55819;SDS011;41747;45.002;39.032;2022-08-05T13:28:02;15.88;;;11.53;;
55819;SDS011;41747;45.002;39.032;2022-08-05T13:30:32;15.15;;;10.63;;
55819;SDS011;41747;45.002;39.032;2022-08-05T13:33:02;16.42;;;11.08;;
55819;SDS011;41747;45.002;39.032;2022-08-05T13:35:32;17.65;;;10.72;;
55819;SDS011;41747;45.002;39.032;2022-08-05T13:38:01;16.02;;;11.05;;
55819;SDS011;41747;45.002;39.032;2022-08-05T13:40:30;14.43;;;11.30;;
55819;SDS011;41747;45.002;39.032;2022-08-05T13:43:00;15.00;;;11.70;;
55819;SDS011;41747;45.002;39.032;2022-08-05T13:45:29;13.48;;;11.33;;
55819;SDS011;41747;45.002;39.032;2022-08-05T13:47:58;16.73;;;11.03;;
55819;SDS011;41747;45.002;39.032;2022-08-05T13:50:28;14.60;;;10.82;;
55819;SDS011;41747;45.002;39.032;2022-08-05T13:52:58;12.13;;;10.28;;
55819;SDS011;41747;45.002;39.032;2022-08-05T13:55:28;12.68;;;10.00;;
55819;SDS011;41747;45.002;39.032;2022-08-05T13:57:57;13.48;;;10.45;;
55819;SDS011;41747;45.002;39.032;2022-08-05T14:00:27;16.50;;;10.75;;
55819;SDS011;41747;45.002;39.032;2022-08-05T14:02:56;14.60;;;9.55;;
55819;SDS011;41747;45.002;39.032;2022-08-05T14:05:26;14.30;;;8.63;;
55819;SDS011;41747;45.002;39.032;2022-08-05T14:07:55;12.88;;;7.65;;
55819;SDS011;41747;45.002;39.032;2022-08-05T14:10:24;9.33;;;6.53;;
55819;SDS011;41747;45.002;39.032;2022-08-05T14:12:53;10.95;;;7.42;;
55819;SDS011;41747;45.002;39.032;2022-08-05T14:15:23;12.68;;;7.03;;
55819;SDS011;41747;45.002;39.032;2022-08-05T14:17:53;9.90;;;7.58;;
55819;SDS011;41747;45.002;39.032;2022-08-05T14:20:22;9.43;;;6.25;;
55819;SDS011;41747;45.002;39.032;2022-08-05T14:22:51;9.30;;;6.90;;
55819;SDS011;41747;45.002;39.032;2022-08-05T14:25:21;8.05;;;6.53;;
55819;SDS011;41747;45.002;39.032;2022-08-05T14:27:51;8.30;;;6.30;;
55819;SDS011;41747;45.002;39.032;2022-08-05T14:30:20;9.60;;;6.58;;
55819;SDS011;41747;45.002;39.032;2022-08-05T14:32:51;12.45;;;7.42;;
55819;SDS011;41747;45.002;39.032;2022-08-05T14:35:20;9.00;;;7.28;;
55819;SDS011;41747;45.002;39.032;2022-08-05T14:37:49;11.05;;;7.58;;
55819;SDS011;41747;45.002;39.032;2022-08-05T14:40:19;14.40;;;8.00;;
55819;SDS011;41747;45.002;39.032;2022-08-05T14:42:48;13.93;;;8.38;;
55819;SDS011;41747;45.002;39.032;2022-08-05T14:45:21;13.90;;;8.30;;
55819;SDS011;41747;45.002;39.032;2022-08-05T14:47:51;12.78;;;9.05;;
55819;SDS011;41747;45.002;39.032;2022-08-05T14:50:20;16.10;;;9.00;;
55819;SDS011;41747;45.002;39.032;2022-08-05T14:52:50;13.60;;;8.78;;
55819;SDS011;41747;45.002;39.032;2022-08-05T14:55:19;17.12;;;9.75;;
55819;SDS011;41747;45.002;39.032;2022-08-05T14:57:49;13.80;;;10.20;;
55819;SDS011;41747;45.002;39.032;2022-08-05T15:00:18;13.83;;;9.75;;
55819;SDS011;41747;45.002;39.032;2022-08-05T15:02:54;15.30;;;9.28;;
55819;SDS011;41747;45.002;39.032;2022-08-05T15:05:23;17.40;;;9.63;;
55819;SDS011;41747;45.002;39.032;2022-08-05T15:07:53;13.90;;;9.18;;
55819;SDS011;41747;45.002;39.032;2022-08-05T15:10:22;14.10;;;8.48;;
55819;SDS011;41747;45.002;39.032;2022-08-05T15:12:52;11.43;;;7.35;;
55819;SDS011;41747;45.002;39.032;2022-08-05T15:15:22;10.03;;;7.58;;